Time;durP1;ratioP1;P1;durP2;ratioP2;P2;SDS_P1;SDS_P2;PMS_P1;PMS_P2;Temp;Humidity;BMP_temperature;BMP_pressure;BME280_temperature;BME280_humidity;BME280_pressure;Samples;Min_cycle;Max_cycle;Signal;HPM_P1;HPM_P2
2024/02/23 00:02:05;;;;;;;;;;;;;;;12.56;58.96;96928.59;68402;1279;1014342;-69
2024/02/23 00:05:08;;;;;;;;;;;;;;;12.65;58.62;96920.20;68412;1279;1015868;-70
2024/02/23 00:08:10;;;;;;;;;;;;;;;12.63;58.77;96918.58;68399;1279;1015127;-70
2024/02/23 00:11:13;;;;;;;;;;;;;;;12.68;58.67;96924.64;68419;1279;1016089;-69
2024/02/23 00:14:18;;;;;;;;;;;;;;;12.73;58.67;96920.80;68374;1279;1015656;-69
2024/02/23 00:17:21;;;;;;;;;;;;;;;12.72;58.76;96918.31;68409;1279;1015966;-70
2024/02/23 00:20:25;;;;;;;;;;;;;;;12.55;59.37;96924.98;68399;1279;1015973;-70
2024/02/23 00:23:28;;;;;;;;;;;;;;;12.62;59.21;96927.34;68400;1279;1014671;-69
2024/02/23 00:26:31;;;;;;;;;;;;;;;12.58;59.43;96926.46;68393;1279;1015293;-69
2024/02/23 00:29:33;;;;;;;;;;;;;;;12.64;59.20;96923.98;68419;1279;1016003;-67
2024/02/23 00:32:36;;;;;;;;;;;;;;;12.72;58.97;96920.70;68412;1279;1015869;-69
2024/02/23 00:35:38;;;;;;;;;;;;;;;12.70;59.15;96916.53;68394;1279;1015897;-69
2024/02/23 00:38:41;;;;;;;;;;;;;;;12.77;59.16;96913.89;68406;1279;1015998;-69
2024/02/23 00:41:43;;;;;;;;;;;;;;;12.71;59.34;96911.02;68399;1279;1015464;-69
2024/02/23 00:44:46;;;;;;;;;;;;;;;12.75;59.34;96907.73;68378;1279;1015230;-70
2024/02/23 00:47:48;;;;;;;;;;;;;;;12.76;59.30;96906.81;68400;1279;1015786;-69
2024/02/23 00:50:51;;;;;;;;;;;;;;;12.78;59.33;96909.91;68406;1279;1014879;-69
2024/02/23 00:53:53;;;;;;;;;;;;;;;12.85;59.21;96904.48;68393;1279;1015444;-69
2024/02/23 00:56:56;;;;;;;;;;;;;;;12.86;59.15;96904.27;68384;1279;1015255;-69
2024/02/23 00:59:59;;;;;;;;;;;;;;;12.95;59.05;96903.66;68394;1279;1016042;-70
2024/02/23 01:03:02;;;;;;;;;;;;;;;12.98;58.89;96897.92;68397;1279;1014960;-69
2024/02/23 01:06:04;;;;;;;;;;;;;;;13.03;58.69;96892.13;68388;1279;1015680;-69
2024/02/23 01:09:07;;;;;;;;;;;;;;;13.11;58.52;96892.63;68405;1279;1016346;-69
2024/02/23 01:12:09;;;;;;;;;;;;;;;13.11;58.67;96887.52;68397;1279;1015898;-69
2024/02/23 01:15:12;;;;;;;;;;;;;;;13.15;58.52;96885.85;68406;1279;1015974;-70
2024/02/23 01:18:14;;;;;;;;;;;;;;;13.18;58.59;96884.84;68400;1279;1015576;-69
2024/02/23 01:21:17;;;;;;;;;;;;;;;13.18;58.52;96885.39;68398;1279;1015447;-69
2024/02/23 01:24:19;;;;;;;;;;;;;;;13.16;58.51;96882.95;68404;1279;1016256;-69
2024/02/23 01:27:22;;;;;;;;;;;;;;;13.16;58.62;96882.41;68407;1279;1014393;-69
2024/02/23 01:30:24;;;;;;;;;;;;;;;13.23;58.28;96882.79;68409;1279;1016250;-69
2024/02/23 01:33:27;;;;;;;;;;;;;;;13.18;58.60;96881.68;68410;1279;1015029;-69
2024/02/23 01:36:29;;;;;;;;;;;;;;;13.22;58.54;96882.02;68424;1279;1015616;-69
2024/02/23 01:39:32;;;;;;;;;;;;;;;13.23;58.62;96884.73;68415;1279;1015834;-69
2024/02/23 01:42:35;;;;;;;;;;;;;;;13.24;58.53;96883.58;68405;1279;1015032;-69
2024/02/23 01:45:38;;;;;;;;;;;;;;;13.26;58.47;96878.65;68393;1279;1015898;-69
2024/02/23 01:48:40;;;;;;;;;;;;;;;13.27;58.53;96878.14;68402;1279;1016116;-70
2024/02/23 01:51:43;;;;;;;;;;;;;;;13.32;58.20;96879.77;68410;1279;1016049;-69
2024/02/23 01:54:45;;;;;;;;;;;;;;;13.31;58.12;96879.18;68411;1279;1014673;-69
2024/02/23 01:57:48;;;;;;;;;;;;;;;13.28;58.12;96881.86;68412;1279;1015779;-69
2024/02/23 02:00:50;;;;;;;;;;;;;;;13.31;58.28;96880.69;68419;1279;1016218;-69
2024/02/23 02:03:53;;;;;;;;;;;;;;;13.37;58.16;96887.34;68406;1279;1015498;-69
2024/02/23 02:06:55;;;;;;;;;;;;;;;13.35;58.42;96885.42;68395;1279;1016018;-69
2024/02/23 02:09:58;;;;;;;;;;;;;;;13.31;58.34;96883.72;68410;1279;1015293;-69
2024/02/23 02:13:01;;;;;;;;;;;;;;;13.12;59.04;96881.60;68404;1279;1016075;-69
2024/02/23 02:16:03;;;;;;;;;;;;;;;13.25;58.57;96879.91;68401;1279;1016129;-69
2024/02/23 02:19:06;;;;;;;;;;;;;;;13.23;58.79;96882.61;68412;1279;1015936;-69
2024/02/23 02:22:08;;;;;;;;;;;;;;;13.29;58.85;96880.09;68415;1279;1015551;-69
2024/02/23 02:25:11;;;;;;;;;;;;;;;13.30;58.90;96884.91;68423;1279;1015693;-68
2024/02/23 02:28:13;;;;;;;;;;;;;;;13.40;58.48;96885.77;68408;1279;1016129;-69
2024/02/23 02:31:16;;;;;;;;;;;;;;;13.57;57.90;96884.96;68407;1279;1015242;-69
2024/02/23 02:34:19;;;;;;;;;;;;;;;13.60;57.93;96877.83;68389;1279;1015562;-69
2024/02/23 02:37:21;;;;;;;;;;;;;;;13.47;58.51;96887.13;68409;1279;1014541;-69
2024/02/23 02:40:24;;;;;;;;;;;;;;;13.46;58.55;96886.77;68379;1280;1016309;-66
2024/02/23 02:43:26;;;;;;;;;;;;;;;13.38;59.13;96883.52;68348;1281;1015973;-69
2024/02/23 02:46:29;;;;;;;;;;;;;;;13.24;59.63;96885.45;68356;1281;1015581;-69
2024/02/23 02:49:31;;;;;;;;;;;;;;;13.21;59.97;96887.02;68350;1281;1015847;-69
2024/02/23 02:52:34;;;;;;;;;;;;;;;13.23;59.98;96883.48;68361;1281;1015682;-69
2024/02/23 02:55:36;;;;;;;;;;;;;;;13.17;60.31;96879.17;68368;1281;1016031;-69
2024/02/23 02:58:39;;;;;;;;;;;;;;;13.15;60.60;96877.95;68340;1281;1015587;-69
2024/02/23 03:01:41;;;;;;;;;;;;;;;13.26;60.42;96881.77;68368;1281;1015872;-69
2024/02/23 03:04:44;;;;;;;;;;;;;;;13.30;60.52;96885.36;68361;1280;1015822;-69
2024/02/23 03:08:07;;;;;;;;;;;;;;;13.37;60.68;96891.92;68350;1281;1015928;-69
2024/02/23 03:11:10;;;;;;;;;;;;;;;13.39;60.75;96893.27;68354;1281;1015890;-68
2024/02/23 03:14:13;;;;;;;;;;;;;;;13.41;61.16;96904.27;68353;1281;1014975;-69
2024/02/23 03:17:15;;;;;;;;;;;;;;;13.41;61.51;96905.74;68350;1281;1016133;-69
2024/02/23 03:20:18;;;;;;;;;;;;;;;13.29;62.25;96910.55;68346;1281;1016088;-69
2024/02/23 03:23:21;;;;;;;;;;;;;;;13.16;63.12;96915.27;68370;1280;1014244;-69
2024/02/23 03:26:24;;;;;;;;;;;;;;;13.06;63.93;96916.43;68364;1281;1016023;-69
2024/02/23 03:29:29;;;;;;;;;;;;;;;13.23;63.64;96921.42;68360;1281;1015607;-69
2024/02/23 03:32:36;;;;;;;;;;;;;;;13.29;63.79;96922.35;68358;1281;1015431;-69
2024/02/23 03:35:38;;;;;;;;;;;;;;;13.28;64.18;96925.42;68358;1281;1015489;-69
2024/02/23 03:38:41;;;;;;;;;;;;;;;13.18;64.92;96928.58;68398;1279;1015606;-69
2024/02/23 03:41:43;;;;;;;;;;;;;;;13.21;65.06;96933.85;68406;1279;1016018;-69
2024/02/23 03:44:46;;;;;;;;;;;;;;;13.17;65.33;96935.50;68412;1279;1016049;-69
2024/02/23 03:47:49;;;;;;;;;;;;;;;13.14;65.90;96936.02;68427;1279;1015286;-70
2024/02/23 03:50:52;;;;;;;;;;;;;;;13.19;65.94;96940.88;68409;1279;1014755;-70
2024/02/23 03:53:54;;;;;;;;;;;;;;;13.22;65.97;96944.19;68397;1279;1015896;-69
2024/02/23 03:56:57;;;;;;;;;;;;;;;13.08;66.29;96946.19;68418;1279;1015558;-70
2024/02/23 03:59:59;;;;;;;;;;;;;;;12.95;67.26;96942.39;68409;1279;1015614;-68
2024/02/23 04:03:02;;;;;;;;;;;;;;;12.90;67.81;96943.89;68425;1279;1015507;-69
2024/02/23 04:06:04;;;;;;;;;;;;;;;12.99;67.63;96945.41;68423;1279;1015549;-69
2024/02/23 04:09:08;;;;;;;;;;;;;;;13.09;67.69;96954.02;68429;1279;1015403;-69
2024/02/23 04:12:12;;;;;;;;;;;;;;;13.14;66.94;96951.05;68420;1279;1015379;-70
2024/02/23 04:15:14;;;;;;;;;;;;;;;13.08;67.54;96954.14;68429;1279;1016203;-69
2024/02/23 04:18:17;;;;;;;;;;;;;;;13.06;67.49;96960.88;68425;1279;1015753;-69
2024/02/23 04:21:19;;;;;;;;;;;;;;;13.02;68.28;96955.74;68429;1279;1015514;-69
2024/02/23 04:24:22;;;;;;;;;;;;;;;12.92;68.55;96961.89;68420;1279;1016628;-68
2024/02/23 04:27:25;;;;;;;;;;;;;;;12.94;68.56;96964.81;68420;1279;1015963;-62
2024/02/23 04:30:27;;;;;;;;;;;;;;;12.84;69.15;96964.38;68428;1279;1015811;-69
2024/02/23 04:33:30;;;;;;;;;;;;;;;12.83;69.57;96973.98;68422;1279;1015408;-69
2024/02/23 04:36:32;;;;;;;;;;;;;;;12.82;69.53;96974.81;68429;1279;1014503;-69
2024/02/23 04:39:35;;;;;;;;;;;;;;;12.77;70.07;96978.98;68430;1279;1014930;-69
2024/02/23 04:42:38;;;;;;;;;;;;;;;12.79;70.46;96977.50;68432;1279;1015948;-69
2024/02/23 04:45:41;;;;;;;;;;;;;;;12.80;70.40;96982.49;68415;1279;1015275;-65
2024/02/23 04:48:43;;;;;;;;;;;;;;;12.83;70.52;96988.50;68416;1279;1015912;-69
2024/02/23 04:51:46;;;;;;;;;;;;;;;12.84;70.76;96994.95;68419;1279;1015566;-69
2024/02/23 04:54:48;;;;;;;;;;;;;;;12.84;70.54;96995.52;68418;1279;1015635;-69
2024/02/23 04:57:51;;;;;;;;;;;;;;;12.77;71.37;96998.39;68430;1279;1015757;-69
2024/02/23 05:00:55;;;;;;;;;;;;;;;12.70;71.54;97002.80;68443;1279;1015582;-70
2024/02/23 05:03:57;;;;;;;;;;;;;;;12.79;71.69;97001.23;68431;1279;1015712;-69
2024/02/23 05:07:01;;;;;;;;;;;;;;;12.84;71.41;96998.44;68410;1279;1015748;-69
2024/02/23 05:10:04;;;;;;;;;;;;;;;12.75;72.00;97005.86;68418;1279;1016538;-67
2024/02/23 05:13:06;;;;;;;;;;;;;;;12.78;71.89;97010.48;68425;1279;1015950;-70
2024/02/23 05:16:09;;;;;;;;;;;;;;;12.69;72.63;97010.30;68415;1279;1015380;-69
2024/02/23 05:19:11;;;;;;;;;;;;;;;12.70;72.50;97006.68;68427;1279;1016190;-69
2024/02/23 05:22:14;;;;;;;;;;;;;;;12.80;72.33;97012.29;68437;1279;1014640;-69
2024/02/23 05:25:16;;;;;;;;;;;;;;;12.85;72.41;97013.73;68429;1279;1016007;-69
2024/02/23 05:28:19;;;;;;;;;;;;;;;12.67;73.22;97020.34;68430;1279;1015790;-69
2024/02/23 05:31:22;;;;;;;;;;;;;;;12.69;73.34;97021.83;68422;1279;1016030;-69
2024/02/23 05:34:25;;;;;;;;;;;;;;;12.86;72.57;97031.55;68431;1279;1015627;-69
2024/02/23 05:37:28;;;;;;;;;;;;;;;12.85;72.94;97033.80;68423;1279;1015529;-69
2024/02/23 05:40:30;;;;;;;;;;;;;;;12.90;73.01;97036.80;68436;1279;1015381;-68
2024/02/23 05:43:34;;;;;;;;;;;;;;;12.89;73.32;97039.05;68434;1279;1015996;-70
2024/02/23 05:46:38;;;;;;;;;;;;;;;12.94;73.14;97044.97;68427;1279;1015563;-69
2024/02/23 05:49:41;;;;;;;;;;;;;;;12.99;72.87;97044.88;68421;1279;1015665;-70
2024/02/23 05:52:43;;;;;;;;;;;;;;;12.97;72.85;97052.73;68424;1279;1015565;-69
2024/02/23 05:55:46;;;;;;;;;;;;;;;12.92;73.13;97058.50;68442;1279;1015338;-69
2024/02/23 05:58:48;;;;;;;;;;;;;;;13.01;73.23;97058.91;68435;1279;1015925;-70
2024/02/23 06:01:52;;;;;;;;;;;;;;;13.11;72.84;97065.62;68432;1279;1016207;-69
2024/02/23 06:04:55;;;;;;;;;;;;;;;12.95;73.37;97073.16;68419;1279;1016021;-69
2024/02/23 06:07:57;;;;;;;;;;;;;;;12.93;73.88;97079.33;68408;1279;1016181;-69
2024/02/23 06:11:00;;;;;;;;;;;;;;;12.95;74.20;97082.98;68421;1279;1015722;-69
2024/02/23 06:14:03;;;;;;;;;;;;;;;12.97;74.00;97084.89;68415;1279;1016057;-69
2024/02/23 06:17:06;;;;;;;;;;;;;;;12.94;74.61;97094.45;68443;1279;1015461;-69
2024/02/23 06:20:09;;;;;;;;;;;;;;;12.98;74.28;97091.45;68404;1280;1015715;-69
2024/02/23 06:23:13;;;;;;;;;;;;;;;12.97;74.50;97096.30;68434;1279;1015942;-69
2024/02/23 06:26:16;;;;;;;;;;;;;;;13.07;74.17;97100.38;68450;1279;1015720;-69
2024/02/23 06:29:18;;;;;;;;;;;;;;;13.06;74.60;97112.59;68436;1279;1015508;-70
2024/02/23 06:32:21;;;;;;;;;;;;;;;13.09;74.76;97114.41;68459;1279;1016146;-69
2024/02/23 06:35:23;;;;;;;;;;;;;;;13.13;74.88;97124.35;68425;1280;1016194;-68
2024/02/23 06:38:26;;;;;;;;;;;;;;;13.21;74.80;97127.47;68428;1280;1015913;-69
2024/02/23 06:41:28;;;;;;;;;;;;;;;13.23;74.47;97132.85;68441;1280;1015405;-70
2024/02/23 06:44:31;;;;;;;;;;;;;;;13.28;74.33;97135.66;68440;1279;1015446;-69
2024/02/23 06:47:34;;;;;;;;;;;;;;;13.31;75.18;97141.41;68422;1279;1015514;-69
2024/02/23 06:50:36;;;;;;;;;;;;;;;13.44;75.06;97146.59;68423;1279;1015877;-69
2024/02/23 06:53:39;;;;;;;;;;;;;;;13.49;74.71;97153.32;68436;1279;1014897;-69
2024/02/23 06:56:42;;;;;;;;;;;;;;;13.45;75.19;97157.11;68438;1280;1015349;-68
2024/02/23 06:59:44;;;;;;;;;;;;;;;13.53;74.94;97154.05;68436;1279;1015636;-69
2024/02/23 07:02:47;;;;;;;;;;;;;;;13.60;74.45;97159.66;68427;1279;1015689;-69
2024/02/23 07:05:50;;;;;;;;;;;;;;;13.60;74.40;97160.99;68445;1279;1015395;-69
2024/02/23 07:08:54;;;;;;;;;;;;;;;13.64;74.47;97162.96;68449;1279;1016039;-69
2024/02/23 07:11:57;;;;;;;;;;;;;;;13.73;73.91;97162.37;68428;1279;1016197;-69
2024/02/23 07:14:59;;;;;;;;;;;;;;;13.60;74.78;97162.65;68432;1279;1015928;-70
2024/02/23 07:18:03;;;;;;;;;;;;;;;13.77;74.05;97161.58;68438;1279;1016233;-69
2024/02/23 07:21:05;;;;;;;;;;;;;;;13.87;73.45;97168.05;68444;1279;1014866;-69
2024/02/23 07:24:08;;;;;;;;;;;;;;;13.83;73.72;97172.89;68430;1279;1016100;-69
2024/02/23 07:27:10;;;;;;;;;;;;;;;13.96;73.13;97177.61;68434;1279;1015543;-69
2024/02/23 07:30:13;;;;;;;;;;;;;;;14.08;73.08;97176.40;68442;1279;1015550;-69
2024/02/23 07:33:15;;;;;;;;;;;;;;;14.02;72.94;97183.70;68437;1279;1016069;-69
2024/02/23 07:36:18;;;;;;;;;;;;;;;14.18;72.57;97188.25;68440;1279;1015865;-69
2024/02/23 07:39:21;;;;;;;;;;;;;;;14.29;71.58;97190.45;68442;1279;1015842;-69
2024/02/23 07:42:24;;;;;;;;;;;;;;;14.26;71.90;97189.87;68438;1279;1016082;-69
2024/02/23 07:45:26;;;;;;;;;;;;;;;14.24;72.70;97199.91;68414;1279;1015862;-69
2024/02/23 07:48:29;;;;;;;;;;;;;;;14.32;71.70;97203.38;68439;1279;1016337;-69
2024/02/23 07:51:32;;;;;;;;;;;;;;;14.25;72.38;97200.38;68425;1279;1015964;-69
2024/02/23 07:54:34;;;;;;;;;;;;;;;14.34;72.52;97202.48;68438;1280;1016500;-69
2024/02/23 07:57:39;;;;;;;;;;;;;;;14.22;73.15;97206.34;68432;1279;1015493;-68
2024/02/23 08:00:42;;;;;;;;;;;;;;;14.30;73.53;97205.66;68442;1279;1016056;-69
2024/02/23 08:03:44;;;;;;;;;;;;;;;14.52;72.90;97207.98;65884;1280;5344367;-69
2024/02/23 08:06:48;;;;;;;;;;;;;;;14.72;71.88;97204.35;68422;1279;1016006;-70
2024/02/23 08:09:50;;;;;;;;;;;;;;;14.71;72.05;97211.05;68432;1279;1015593;-69
2024/02/23 08:12:53;;;;;;;;;;;;;;;14.65;72.26;97211.63;68448;1279;1015521;-69
2024/02/23 08:15:56;;;;;;;;;;;;;;;14.66;71.60;97213.30;68439;1279;1014521;-69
2024/02/23 08:18:58;;;;;;;;;;;;;;;14.77;71.22;97217.38;68436;1279;1015993;-69
2024/02/23 08:22:01;;;;;;;;;;;;;;;14.68;71.84;97224.17;68439;1279;1015920;-69
2024/02/23 08:25:12;;;;;;;;;;;;;;;14.74;71.47;97228.25;68361;1279;1015614;-69
2024/02/23 08:28:14;;;;;;;;;;;;;;;14.66;71.99;97221.38;68426;1279;1016136;-69
2024/02/23 08:31:17;;;;;;;;;;;;;;;14.56;72.42;97225.94;68431;1279;1014792;-69
2024/02/23 08:34:20;;;;;;;;;;;;;;;14.55;72.50;97230.35;68440;1279;1015789;-69
2024/02/23 08:37:22;;;;;;;;;;;;;;;14.55;73.56;97225.92;68442;1279;1015780;-66
2024/02/23 08:40:25;;;;;;;;;;;;;;;14.59;73.70;97227.02;68432;1279;1016043;-69
2024/02/23 08:43:28;;;;;;;;;;;;;;;14.72;73.52;97228.10;68437;1279;1014531;-69
2024/02/23 08:46:30;;;;;;;;;;;;;;;15.02;71.45;97230.69;68429;1279;1014237;-69
2024/02/23 08:49:33;;;;;;;;;;;;;;;14.94;72.38;97233.50;68437;1279;1015330;-68
2024/02/23 08:52:36;;;;;;;;;;;;;;;14.90;72.57;97237.25;68438;1279;1016187;-69
2024/02/23 08:55:39;;;;;;;;;;;;;;;14.84;72.95;97236.57;68435;1279;1014559;-70
2024/02/23 08:58:41;;;;;;;;;;;;;;;14.85;73.22;97239.27;68425;1280;1015743;-69
2024/02/23 09:01:46;;;;;;;;;;;;;;;14.82;73.64;97238.35;68426;1279;1015306;-69
2024/02/23 09:04:49;;;;;;;;;;;;;;;14.82;73.53;97240.48;68449;1280;1015563;-69
2024/02/23 09:07:51;;;;;;;;;;;;;;;14.87;73.35;97237.30;68405;1279;1015280;-69
2024/02/23 09:10:54;;;;;;;;;;;;;;;15.10;72.98;97237.77;68436;1279;1015658;-69
2024/02/23 09:13:56;;;;;;;;;;;;;;;15.05;72.59;97236.01;68420;1279;1015802;-69
2024/02/23 09:16:59;;;;;;;;;;;;;;;14.99;73.42;97238.70;68426;1279;1015263;-69
2024/02/23 09:20:02;;;;;;;;;;;;;;;15.09;73.01;97238.71;68436;1279;1015788;-69
2024/02/23 09:23:04;;;;;;;;;;;;;;;15.00;73.93;97238.05;68440;1279;1016302;-69
2024/02/23 09:26:07;;;;;;;;;;;;;;;14.88;74.86;97238.48;68440;1280;1015548;-69
2024/02/23 09:29:09;;;;;;;;;;;;;;;14.95;74.58;97241.77;68429;1279;1015834;-69
2024/02/23 09:32:12;;;;;;;;;;;;;;;15.04;74.23;97245.58;68442;1279;1015832;-69
2024/02/23 09:35:15;;;;;;;;;;;;;;;15.08;74.64;97247.42;68445;1279;1016043;-69
2024/02/23 09:38:18;;;;;;;;;;;;;;;15.13;74.65;97251.21;68440;1279;1015516;-69
2024/02/23 09:41:20;;;;;;;;;;;;;;;15.20;73.84;97253.75;68421;1279;1014704;-69
2024/02/23 09:44:23;;;;;;;;;;;;;;;15.15;74.10;97263.70;68437;1280;1015509;-68
2024/02/23 09:47:25;;;;;;;;;;;;;;;15.09;75.02;97267.80;68451;1279;1015870;-69
2024/02/23 09:50:28;;;;;;;;;;;;;;;15.14;74.35;97272.92;68432;1279;1015911;-69
2024/02/23 09:53:30;;;;;;;;;;;;;;;15.21;73.72;97274.23;68427;1279;1016099;-69
2024/02/23 09:56:33;;;;;;;;;;;;;;;15.16;74.05;97273.94;68431;1279;1015798;-69
2024/02/23 09:59:36;;;;;;;;;;;;;;;15.16;74.30;97277.10;68432;1279;1015696;-68
2024/02/23 10:02:38;;;;;;;;;;;;;;;15.17;74.03;97281.20;68435;1279;1015776;-69
2024/02/23 10:05:42;;;;;;;;;;;;;;;15.18;74.56;97284.99;68427;1279;1015686;-69
2024/02/23 10:08:45;;;;;;;;;;;;;;;15.18;74.39;97290.44;68438;1279;1016302;-69
2024/02/23 10:11:47;;;;;;;;;;;;;;;15.17;74.56;97301.99;68428;1279;1015590;-69
2024/02/23 10:14:50;;;;;;;;;;;;;;;15.11;74.73;97297.48;68426;1279;1016140;-69
2024/02/23 10:17:54;;;;;;;;;;;;;;;15.05;75.23;97298.85;68427;1280;1016088;-68
2024/02/23 10:20:57;;;;;;;;;;;;;;;15.20;74.63;97298.48;68422;1280;1015427;-69
2024/02/23 10:24:00;;;;;;;;;;;;;;;15.29;74.53;97298.51;68439;1279;1015584;-69
2024/02/23 10:27:03;;;;;;;;;;;;;;;15.30;74.52;97303.70;68432;1279;1016527;-69
2024/02/23 10:30:06;;;;;;;;;;;;;;;15.28;74.70;97306.09;68440;1279;1015374;-69
2024/02/23 10:33:09;;;;;;;;;;;;;;;15.12;75.68;97316.93;68409;1279;1016035;-68
2024/02/23 10:36:11;;;;;;;;;;;;;;;15.13;75.79;97322.54;68434;1280;1015688;-69
2024/02/23 10:39:14;;;;;;;;;;;;;;;15.08;75.78;97328.77;68418;1279;1015466;-69
2024/02/23 10:42:16;;;;;;;;;;;;;;;15.13;75.96;97331.86;68428;1280;1015771;-69
2024/02/23 10:45:19;;;;;;;;;;;;;;;15.20;76.12;97333.55;68437;1280;1015546;-69
2024/02/23 10:48:22;;;;;;;;;;;;;;;15.13;76.39;97339.70;68425;1280;1015854;-69
2024/02/23 10:51:24;;;;;;;;;;;;;;;15.15;76.32;97339.32;68423;1279;1015525;-69
2024/02/23 10:54:27;;;;;;;;;;;;;;;15.24;76.46;97331.93;68427;1280;1015561;-69
2024/02/23 10:57:29;;;;;;;;;;;;;;;15.52;75.51;97335.15;68435;1280;1015265;-69
2024/02/23 11:00:32;;;;;;;;;;;;;;;15.52;74.97;97340.77;68419;1280;1015046;-69
2024/02/23 11:03:35;;;;;;;;;;;;;;;15.39;75.13;97341.98;68429;1279;1015470;-63
2024/02/23 11:06:37;;;;;;;;;;;;;;;15.24;76.32;97348.77;68436;1280;1015768;-69
2024/02/23 11:09:40;;;;;;;;;;;;;;;15.27;76.73;97344.48;68421;1279;1015817;-69
2024/02/23 11:12:43;;;;;;;;;;;;;;;15.37;77.17;97340.10;68434;1280;1015336;-69
2024/02/23 11:15:45;;;;;;;;;;;;;;;15.58;76.32;97337.88;68420;1280;1015925;-69
2024/02/23 11:18:48;;;;;;;;;;;;;;;15.66;76.59;97334.72;68429;1280;1015532;-69
2024/02/23 11:21:50;;;;;;;;;;;;;;;15.93;76.44;97338.31;68426;1280;1016673;-69
2024/02/23 11:24:53;;;;;;;;;;;;;;;16.01;76.37;97333.34;68410;1280;1015430;-69
2024/02/23 11:27:56;;;;;;;;;;;;;;;16.01;75.54;97338.34;68422;1280;1015309;-69
2024/02/23 11:31:02;;;;;;;;;;;;;;;16.07;74.92;97339.06;68434;1279;1015786;-69
2024/02/23 11:34:04;;;;;;;;;;;;;;;16.20;74.54;97342.44;68417;1280;1014430;-69
2024/02/23 11:37:07;;;;;;;;;;;;;;;16.12;74.61;97349.44;68409;1279;1015747;-67
2024/02/23 11:40:10;;;;;;;;;;;;;;;15.85;74.75;97354.16;68424;1279;1015498;-68
2024/02/23 11:43:12;;;;;;;;;;;;;;;15.81;75.85;97363.87;68413;1279;1015993;-69
2024/02/23 11:46:15;;;;;;;;;;;;;;;15.63;75.94;97364.18;68421;1279;1015542;-69
2024/02/23 11:49:18;;;;;;;;;;;;;;;15.47;76.08;97373.19;68395;1279;1015817;-65
2024/02/23 11:52:21;;;;;;;;;;;;;;;15.44;76.28;97373.57;68414;1279;1016157;-69
2024/02/23 11:55:23;;;;;;;;;;;;;;;15.46;75.96;97378.44;68436;1279;1016071;-65
2024/02/23 11:58:26;;;;;;;;;;;;;;;15.39;75.75;97377.39;68429;1279;1015418;-69
2024/02/23 12:01:29;;;;;;;;;;;;;;;15.33;75.88;97370.75;68406;1279;1015665;-69
2024/02/23 12:04:31;;;;;;;;;;;;;;;15.29;76.50;97372.95;68408;1279;1015209;-66
2024/02/23 12:07:34;;;;;;;;;;;;;;;15.27;76.85;97379.34;68403;1279;1014336;-69
2024/02/23 12:10:37;;;;;;;;;;;;;;;15.28;77.87;97384.17;68410;1279;1015827;-69
2024/02/23 12:13:40;;;;;;;;;;;;;;;15.19;77.85;97395.27;68408;1279;1015870;-69
2024/02/23 12:16:42;;;;;;;;;;;;;;;15.05;78.84;97396.02;68416;1279;1015842;-69
2024/02/23 12:19:45;;;;;;;;;;;;;;;15.05;79.39;97400.10;68413;1279;1015228;-69
2024/02/23 12:22:48;;;;;;;;;;;;;;;15.15;78.97;97403.48;68398;1279;1015301;-69
2024/02/23 12:25:50;;;;;;;;;;;;;;;15.16;79.22;97403.13;68418;1279;1015342;-69
2024/02/23 12:28:53;;;;;;;;;;;;;;;15.20;79.47;97403.09;68431;1279;1015711;-69
2024/02/23 12:31:55;;;;;;;;;;;;;;;15.13;80.23;97403.78;68405;1279;1015622;-68
2024/02/23 12:34:58;;;;;;;;;;;;;;;15.18;80.76;97410.14;68421;1279;1015794;-69
2024/02/23 12:38:01;;;;;;;;;;;;;;;15.12;80.77;97425.55;68432;1279;1016262;-69
2024/02/23 12:41:04;;;;;;;;;;;;;;;15.07;81.16;97424.88;68416;1279;1016132;-69
2024/02/23 12:44:07;;;;;;;;;;;;;;;15.08;81.24;97426.79;68412;1279;1016126;-69
2024/02/23 12:47:09;;;;;;;;;;;;;;;15.18;80.75;97430.11;68395;1279;1015355;-69
2024/02/23 12:50:12;;;;;;;;;;;;;;;15.12;81.07;97431.37;68418;1279;1015842;-69
2024/02/23 12:53:14;;;;;;;;;;;;;;;15.19;81.06;97435.17;68420;1279;1015645;-69
2024/02/23 12:56:17;;;;;;;;;;;;;;;15.31;79.92;97434.23;68414;1279;1016208;-69
2024/02/23 12:59:20;;;;;;;;;;;;;;;15.29;79.58;97430.56;68415;1279;1015612;-69
2024/02/23 13:02:23;;;;;;;;;;;;;;;15.26;80.42;97426.14;68408;1279;1015755;-69
2024/02/23 13:05:25;;;;;;;;;;;;;;;15.29;80.86;97413.46;68410;1279;1015020;-68
2024/02/23 13:08:28;;;;;;;;;;;;;;;15.42;80.24;97409.20;68400;1279;1014735;-69
2024/02/23 13:11:30;;;;;;;;;;;;;;;15.28;81.68;97410.42;68415;1279;1016257;-69
2024/02/23 13:14:33;;;;;;;;;;;;;;;15.46;80.45;97410.31;68407;1279;1015717;-69
2024/02/23 13:17:36;;;;;;;;;;;;;;;15.55;79.58;97417.64;68391;1279;1015437;-69
2024/02/23 13:20:38;;;;;;;;;;;;;;;15.65;79.09;97430.91;68410;1279;1015733;-69
2024/02/23 13:23:43;;;;;;;;;;;;;;;15.55;79.04;97437.55;68408;1279;1015212;-69
2024/02/23 13:26:45;;;;;;;;;;;;;;;15.53;79.40;97434.27;68405;1279;1016395;-69
2024/02/23 13:29:48;;;;;;;;;;;;;;;15.41;79.79;97431.22;68409;1279;1015570;-69
2024/02/23 13:32:51;;;;;;;;;;;;;;;15.44;80.10;97434.86;68395;1279;1015970;-68
2024/02/23 13:35:54;;;;;;;;;;;;;;;15.50;80.34;97444.27;68409;1279;1014468;-69
2024/02/23 13:38:57;;;;;;;;;;;;;;;15.61;79.45;97448.12;68404;1279;1015766;-69
2024/02/23 13:41:59;;;;;;;;;;;;;;;15.57;79.28;97453.19;68399;1279;1015584;-69
2024/02/23 13:45:02;;;;;;;;;;;;;;;15.62;78.24;97451.98;68430;1279;1016031;-69
2024/02/23 13:48:05;;;;;;;;;;;;;;;15.55;78.90;97452.70;68414;1279;1015244;-69
2024/02/23 13:51:08;;;;;;;;;;;;;;;15.55;78.87;97452.58;68410;1279;1015548;-69
2024/02/23 13:54:10;;;;;;;;;;;;;;;15.58;77.88;97455.17;68425;1279;1014831;-69
2024/02/23 13:57:13;;;;;;;;;;;;;;;15.68;76.48;97452.20;68410;1279;1015196;-69
2024/02/23 14:00:15;;;;;;;;;;;;;;;15.55;77.55;97463.05;68405;1279;1016293;-69
2024/02/23 14:03:19;;;;;;;;;;;;;;;15.64;76.86;97457.02;68402;1279;1015330;-69
2024/02/23 14:06:22;;;;;;;;;;;;;;;15.48;76.87;97457.67;68406;1279;1015536;-69
2024/02/23 14:09:25;;;;;;;;;;;;;;;15.53;76.47;97457.60;68403;1279;1015503;-68
2024/02/23 14:12:27;;;;;;;;;;;;;;;15.43;77.03;97459.44;68393;1279;1015884;-68
2024/02/23 14:15:30;;;;;;;;;;;;;;;15.41;77.34;97461.34;68413;1279;1015573;-69
2024/02/23 14:18:36;;;;;;;;;;;;;;;15.37;77.27;97464.06;68392;1279;1015677;-62
2024/02/23 14:21:39;;;;;;;;;;;;;;;15.43;77.17;97463.73;68404;1279;1015626;-64
2024/02/23 14:24:41;;;;;;;;;;;;;;;15.53;76.00;97463.98;68401;1279;1015398;-69
2024/02/23 14:27:44;;;;;;;;;;;;;;;15.42;75.61;97469.20;68391;1279;1015132;-69
2024/02/23 14:30:46;;;;;;;;;;;;;;;15.29;76.10;97475.77;68401;1279;1015389;-69
2024/02/23 14:33:50;;;;;;;;;;;;;;;15.24;76.09;97475.02;68399;1279;1015539;-68
2024/02/23 14:36:53;;;;;;;;;;;;;;;15.20;75.97;97469.64;68409;1279;1015922;-69
2024/02/23 14:39:55;;;;;;;;;;;;;;;15.08;77.00;97474.59;68365;1279;1015644;-68
2024/02/23 14:42:58;;;;;;;;;;;;;;;15.11;76.92;97475.89;68341;1281;1015848;-69
2024/02/23 14:46:01;;;;;;;;;;;;;;;15.16;76.30;97483.05;68346;1281;1015858;-68
2024/02/23 14:49:04;;;;;;;;;;;;;;;15.19;75.70;97486.86;68341;1281;1015345;-69
2024/02/23 14:52:07;;;;;;;;;;;;;;;15.17;75.86;97489.55;68346;1281;1015171;-69
2024/02/23 14:55:11;;;;;;;;;;;;;;;15.30;75.39;97491.86;68364;1281;1016233;-69
2024/02/23 14:58:13;;;;;;;;;;;;;;;15.24;76.31;97493.73;68325;1281;1015440;-68
2024/02/23 15:01:16;;;;;;;;;;;;;;;15.22;76.06;97497.09;68342;1281;1016282;-69
2024/02/23 15:04:18;;;;;;;;;;;;;;;15.10;75.79;97501.83;68327;1281;1015454;-69
2024/02/23 15:07:21;;;;;;;;;;;;;;;15.01;76.29;97502.85;68345;1281;1015503;-69
2024/02/23 15:10:23;;;;;;;;;;;;;;;14.94;76.35;97508.58;68340;1281;1015690;-69
2024/02/23 15:13:26;;;;;;;;;;;;;;;14.73;77.48;97513.28;68338;1281;1015318;-68
2024/02/23 15:16:30;;;;;;;;;;;;;;;14.66;78.21;97516.00;68333;1281;1015838;-68
2024/02/23 15:19:33;;;;;;;;;;;;;;;14.43;79.54;97515.63;68344;1280;1015416;-69
2024/02/23 15:22:36;;;;;;;;;;;;;;;14.34;80.02;97522.27;68365;1281;1015706;-69
2024/02/23 15:25:39;;;;;;;;;;;;;;;14.29;80.25;97526.44;68345;1281;1016073;-68
2024/02/23 15:28:41;;;;;;;;;;;;;;;14.20;81.29;97519.92;68352;1281;1015482;-69